createdAt,value
2022-08-29T00:01:01.663Z,99477.66
2022-08-29T00:02:05.406Z,99482.47
2022-08-29T00:03:08.832Z,99481.34
2022-08-29T00:04:11.278Z,99488.34
2022-08-29T00:05:13.762Z,99482.50
2022-08-29T00:06:16.182Z,99480.41
2022-08-29T00:07:18.730Z,99481.53
2022-08-29T00:08:21.348Z,99477.47
2022-08-29T00:09:23.612Z,99485.03
2022-08-29T00:10:27.308Z,99481.94
2022-08-29T00:11:30.034Z,99477.28
2022-08-29T00:12:32.430Z,99469.81
2022-08-29T00:13:35.314Z,99471.31
2022-08-29T00:14:37.618Z,99474.81
2022-08-29T00:15:44.382Z,99467.34
2022-08-29T00:16:47.538Z,99473.22
2022-08-29T00:17:50.950Z,99474.81
2022-08-29T00:18:53.235Z,99470.56
2022-08-29T00:19:55.484Z,99473.09
2022-08-29T00:20:57.782Z,99461.06
2022-08-29T00:22:00.159Z,99472.72
2022-08-29T00:23:04.595Z,99467.13
2022-08-29T00:24:07.330Z,99479.22
2022-08-29T00:25:12.754Z,99464.00
2022-08-29T00:26:15.017Z,99469.75
2022-08-29T00:27:17.322Z,99482.25
2022-08-29T00:28:19.563Z,99474.50
2022-08-29T00:29:21.848Z,99475.44
2022-08-29T00:30:25.247Z,99473.75
2022-08-29T00:31:28.226Z,99479.63
2022-08-29T00:32:34.998Z,99475.91
2022-08-29T00:33:39.274Z,99486.03
2022-08-29T00:34:41.759Z,99481.34
2022-08-29T00:35:45.199Z,99476.97
2022-08-29T00:36:49.331Z,99487.38
2022-08-29T00:37:54.570Z,99482.09
2022-08-29T00:38:57.217Z,99491.97
2022-08-29T00:40:01.497Z,99490.94
2022-08-29T00:41:04.588Z,99484.38
2022-08-29T00:42:07.082Z,99474.19
2022-08-29T00:43:10.424Z,99486.13
2022-08-29T00:44:12.817Z,99478.31
2022-08-29T00:45:17.690Z,99474.88
2022-08-29T00:46:28.622Z,99481.47
2022-08-29T00:47:34.275Z,99481.94
2022-08-29T00:48:39.057Z,99474.28
2022-08-29T00:49:42.768Z,99477.88
2022-08-29T00:50:59.169Z,99485.34
2022-08-29T00:52:11.053Z,99471.06
2022-08-29T00:53:16.889Z,99472.84
2022-08-29T00:54:19.444Z,99475.78
2022-08-29T00:55:25.522Z,99478.75
2022-08-29T00:56:29.550Z,99477.34
2022-08-29T00:57:32.524Z,99481.16
2022-08-29T00:58:49.980Z,99473.22
2022-08-29T00:59:52.838Z,99476.78
2022-08-29T01:00:55.255Z,99475.19
2022-08-29T01:01:58.305Z,99467.31
2022-08-29T01:03:00.670Z,99475.75
2022-08-29T01:04:03.597Z,99481.34
2022-08-29T01:05:13.081Z,99478.31
2022-08-29T01:06:15.648Z,99483.91
2022-08-29T01:07:17.994Z,99480.78
2022-08-29T01:08:20.433Z,99476.59
2022-08-29T01:09:25.057Z,99490.50
2022-08-29T01:10:46.313Z,99487.38
2022-08-29T01:12:07.288Z,99488.50
2022-08-29T01:13:11.425Z,99489.38
2022-08-29T01:14:15.273Z,99492.69
2022-08-29T01:15:17.974Z,99488.91
2022-08-29T01:16:22.699Z,99495.25
2022-08-29T01:17:30.914Z,99492.41
2022-08-29T01:18:36.713Z,99486.34
2022-08-29T01:19:54.641Z,99492.41
2022-08-29T01:21:05.853Z,99488.06
2022-08-29T01:22:34.920Z,99489.47
2022-08-29T01:23:47.628Z,99495.22
2022-08-29T01:24:52.508Z,99495.41
2022-08-29T01:25:56.059Z,99492.75
2022-08-29T01:26:58.345Z,99499.44
2022-08-29T01:28:18.100Z,99490.47
2022-08-29T01:29:20.406Z,99495.84
2022-08-29T01:30:22.743Z,99499.44
2022-08-29T01:31:51.472Z,99495.91
2022-08-29T01:32:58.522Z,99500.94
2022-08-29T01:34:00.712Z,99495.84
2022-08-29T01:35:05.510Z,99498.06
2022-08-29T01:36:10.648Z,99496.00
2022-08-29T01:37:14.835Z,99500.81
2022-08-29T01:38:27.503Z,99492.38
2022-08-29T01:39:35.774Z,99499.19
2022-08-29T01:40:38.198Z,99494.16
2022-08-29T01:41:42.105Z,99499.78
2022-08-29T01:42:44.436Z,99492.63
2022-08-29T01:43:49.714Z,99501.28
2022-08-29T01:44:58.397Z,99498.16
2022-08-29T01:46:00.900Z,99506.09
2022-08-29T01:47:05.369Z,99500.91
2022-08-29T01:48:08.019Z,99506.75
2022-08-29T01:49:11.487Z,99503.00
2022-08-29T01:50:15.574Z,99503.06
2022-08-29T01:51:18.745Z,99506.19
2022-08-29T01:52:21.429Z,99502.19
2022-08-29T01:53:24.203Z,99507.25
2022-08-29T01:54:27.068Z,99506.13
2022-08-29T01:55:29.433Z,99496.41
2022-08-29T01:56:34.439Z,99506.72
2022-08-29T01:57:38.757Z,99506.13
2022-08-29T01:58:42.119Z,99500.38
2022-08-29T01:59:45.457Z,99494.69
2022-08-29T02:00:47.800Z,99505.59
2022-08-29T02:02:19.877Z,99506.94
2022-08-29T02:03:22.174Z,99502.47
2022-08-29T02:04:24.412Z,99491.44
2022-08-29T02:05:30.523Z,99499.03
2022-08-29T02:06:33.946Z,99497.91
2022-08-29T02:07:36.191Z,99505.25
2022-08-29T02:08:39.812Z,99505.94
2022-08-29T02:09:45.595Z,99506.28
2022-08-29T02:10:48.193Z,99511.59
2022-08-29T02:11:50.472Z,99502.69
2022-08-29T02:12:54.182Z,99505.69
2022-08-29T02:13:58.371Z,99511.00
2022-08-29T02:15:01.098Z,99502.88
2022-08-29T02:16:04.105Z,99496.56
2022-08-29T02:17:08.010Z,99500.16
2022-08-29T02:18:10.527Z,99507.78
2022-08-29T02:19:12.760Z,99509.19
2022-08-29T02:20:15.289Z,99507.41
2022-08-29T02:21:19.667Z,99510.31
2022-08-29T02:22:22.706Z,99516.97
2022-08-29T02:23:31.042Z,99506.91
2022-08-29T02:24:33.954Z,99507.13
2022-08-29T02:25:42.229Z,99499.63
2022-08-29T02:26:44.791Z,99507.81
2022-08-29T02:27:47.045Z,99513.31
2022-08-29T02:28:50.533Z,99513.41
2022-08-29T02:29:53.039Z,99507.34
2022-08-29T02:30:56.913Z,99513.81
2022-08-29T02:31:59.420Z,99514.09
2022-08-29T02:33:04.099Z,99512.72
2022-08-29T02:34:08.885Z,99517.59
2022-08-29T02:35:14.838Z,99509.06
2022-08-29T02:36:19.670Z,99514.53
2022-08-29T02:37:22.077Z,99513.66
2022-08-29T02:38:25.183Z,99492.09
2022-08-29T02:39:27.471Z,99503.44
2022-08-29T02:40:31.477Z,99501.31
2022-08-29T02:41:34.336Z,99510.75
2022-08-29T02:42:36.647Z,99508.31
2022-08-29T02:43:38.969Z,99504.91
2022-08-29T02:44:41.186Z,99507.34
2022-08-29T02:45:43.974Z,99502.69
2022-08-29T02:46:46.385Z,99508.06
2022-08-29T02:47:48.857Z,99501.38
2022-08-29T02:48:58.221Z,99504.47
2022-08-29T02:50:10.087Z,99502.66
2022-08-29T02:51:23.153Z,99498.66
2022-08-29T02:52:25.273Z,99500.88
2022-08-29T02:53:33.937Z,99501.38
2022-08-29T02:54:36.197Z,99498.56
2022-08-29T02:55:38.850Z,99504.88
2022-08-29T02:56:41.995Z,99504.56
2022-08-29T02:57:45.366Z,99508.22
2022-08-29T02:58:50.495Z,99502.34
2022-08-29T02:59:52.990Z,99503.09
2022-08-29T03:00:56.600Z,99500.19
2022-08-29T03:01:59.244Z,99498.13
2022-08-29T03:03:02.756Z,99510.41
2022-08-29T03:04:05.337Z,99494.75
2022-08-29T03:05:07.986Z,99506.69
2022-08-29T03:06:10.431Z,99502.75
2022-08-29T03:07:12.710Z,99502.69
2022-08-29T03:08:15.083Z,99511.81
2022-08-29T03:09:17.549Z,99506.16
2022-08-29T03:10:20.549Z,99507.88
2022-08-29T03:11:23.587Z,99512.13
2022-08-29T03:12:25.869Z,99502.25
2022-08-29T03:13:30.542Z,99508.03
2022-08-29T03:14:32.911Z,99500.09
2022-08-29T03:15:35.279Z,99509.13
2022-08-29T03:16:37.646Z,99493.78
2022-08-29T03:17:40.321Z,99497.19
2022-08-29T03:18:42.939Z,99499.66
2022-08-29T03:19:45.247Z,99510.59
2022-08-29T03:20:48.079Z,99504.94
2022-08-29T03:21:52.112Z,99500.03
2022-08-29T03:22:54.960Z,99499.66
2022-08-29T03:23:57.398Z,99495.41
2022-08-29T03:25:03.685Z,99502.97
2022-08-29T03:26:06.268Z,99499.16
2022-08-29T03:27:08.441Z,99501.47
2022-08-29T03:28:10.728Z,99504.00
2022-08-29T03:29:13.030Z,99498.91
2022-08-29T03:30:16.978Z,99498.22
2022-08-29T03:31:19.772Z,99493.78
2022-08-29T03:32:22.130Z,99492.84
2022-08-29T03:33:24.861Z,99492.34
2022-08-29T03:34:28.415Z,99493.56
2022-08-29T03:35:31.500Z,99497.13
2022-08-29T03:36:34.131Z,99485.94
2022-08-29T03:37:36.495Z,99481.69
2022-08-29T03:38:39.330Z,99490.81
2022-08-29T03:39:41.582Z,99489.34
2022-08-29T03:40:43.923Z,99487.19
2022-08-29T03:41:46.796Z,99490.13
2022-08-29T03:42:49.089Z,99490.41
2022-08-29T03:43:51.786Z,99489.69
2022-08-29T03:44:54.067Z,99499.41
2022-08-29T03:45:56.281Z,99493.88
2022-08-29T03:46:58.663Z,99493.34
2022-08-29T03:48:00.929Z,99488.88
2022-08-29T03:49:23.471Z,99498.09
2022-08-29T03:50:25.785Z,99493.63
2022-08-29T03:51:29.374Z,99491.44
2022-08-29T03:52:31.904Z,99488.34
2022-08-29T03:53:34.202Z,99488.94
2022-08-29T03:54:38.773Z,99489.44
2022-08-29T03:55:41.427Z,99484.75
2022-08-29T03:56:43.754Z,99487.13
2022-08-29T03:57:46.377Z,99485.34
2022-08-29T03:58:52.821Z,99481.50
2022-08-29T03:59:56.351Z,99485.34
2022-08-29T04:00:59.155Z,99486.13
2022-08-29T04:02:01.653Z,99489.97
2022-08-29T04:03:04.082Z,99479.31
2022-08-29T04:04:06.464Z,99482.03
2022-08-29T04:05:09.702Z,99472.03
2022-08-29T04:06:12.232Z,99489.59
2022-08-29T04:07:14.884Z,99480.63
2022-08-29T04:08:17.182Z,99489.44
2022-08-29T04:09:19.890Z,99486.06
2022-08-29T04:10:32.034Z,99491.94
2022-08-29T04:11:34.274Z,99493.31
2022-08-29T04:12:37.204Z,99489.59
2022-08-29T04:13:39.659Z,99496.13
2022-08-29T04:14:42.723Z,99490.16
2022-08-29T04:15:45.025Z,99487.59
2022-08-29T04:16:51.866Z,99488.41
2022-08-29T04:17:57.500Z,99486.41
2022-08-29T04:19:00.758Z,99487.69
2022-08-29T04:20:05.059Z,99485.13
2022-08-29T04:21:09.672Z,99466.81
2022-08-29T04:22:13.664Z,99474.25
2022-08-29T04:23:16.070Z,99474.00
2022-08-29T04:24:19.707Z,99480.25
2022-08-29T04:25:25.109Z,99478.88
2022-08-29T04:26:36.534Z,99476.84
2022-08-29T04:27:39.845Z,99483.50
2022-08-29T04:28:42.090Z,99480.13
2022-08-29T04:29:48.194Z,99480.78
2022-08-29T04:30:52.881Z,99488.47
2022-08-29T04:31:55.249Z,99482.34
2022-08-29T04:32:57.541Z,99486.88
2022-08-29T04:33:59.936Z,99494.59
2022-08-29T04:35:02.626Z,99491.97
2022-08-29T04:36:06.128Z,99500.25
2022-08-29T04:37:08.456Z,99502.00
2022-08-29T04:38:10.803Z,99504.25
2022-08-29T04:39:14.956Z,99498.59
2022-08-29T04:40:20.626Z,99505.75
2022-08-29T04:41:22.858Z,99491.97
2022-08-29T04:42:25.938Z,99494.59
2022-08-29T04:43:28.196Z,99485.59
2022-08-29T04:44:30.481Z,99490.50
2022-08-29T04:45:33.456Z,99491.03
2022-08-29T04:46:35.776Z,99494.41
2022-08-29T04:47:39.015Z,99489.78
2022-08-29T04:48:41.293Z,99489.22
2022-08-29T04:49:44.001Z,99497.81
2022-08-29T04:50:52.827Z,99494.56
2022-08-29T04:51:55.167Z,99494.06
2022-08-29T04:52:57.574Z,99497.44
2022-08-29T04:53:59.896Z,99494.28
2022-08-29T04:55:02.184Z,99494.44
2022-08-29T04:56:07.709Z,99492.06
2022-08-29T04:57:10.142Z,99494.44
2022-08-29T04:58:13.720Z,99489.75
2022-08-29T04:59:17.134Z,99489.09
2022-08-29T05:00:23.314Z,99492.66
2022-08-29T05:01:27.086Z,99494.91
2022-08-29T05:02:30.496Z,99483.53
2022-08-29T05:03:33.846Z,99483.63
2022-08-29T05:04:36.219Z,99489.25
2022-08-29T05:05:38.488Z,99497.97
2022-08-29T05:06:41.215Z,99502.22
2022-08-29T05:07:45.177Z,99513.56
2022-08-29T05:08:47.705Z,99532.38
2022-08-29T05:10:07.053Z,99536.81
2022-08-29T05:11:22.623Z,99542.69
2022-08-29T05:12:26.037Z,99547.75
2022-08-29T05:13:28.307Z,99544.03
2022-08-29T05:14:30.558Z,99550.13
2022-08-29T05:15:32.921Z,99552.09
2022-08-29T05:16:37.198Z,99557.44
2022-08-29T05:17:39.681Z,99549.78
2022-08-29T05:18:44.144Z,99552.53
2022-08-29T05:19:46.363Z,99557.19
2022-08-29T05:20:48.953Z,99561.84
2022-08-29T05:21:57.261Z,99569.59
2022-08-29T05:22:59.563Z,99575.94
2022-08-29T05:24:02.905Z,99579.75
2022-08-29T05:25:06.219Z,99574.22
2022-08-29T05:26:08.469Z,99585.84
2022-08-29T05:27:14.393Z,99584.97
2022-08-29T05:28:16.769Z,99591.69
2022-08-29T05:29:20.311Z,99582.91
2022-08-29T05:30:34.216Z,99590.84
2022-08-29T05:31:41.022Z,99591.81
2022-08-29T05:32:43.791Z,99584.19
2022-08-29T05:33:46.029Z,99578.81
2022-08-29T05:34:49.567Z,99589.09
2022-08-29T05:35:51.962Z,99586.22
2022-08-29T05:36:54.561Z,99593.78
2022-08-29T05:37:56.814Z,99589.47
2022-08-29T05:39:00.394Z,99592.56
2022-08-29T05:40:03.589Z,99591.38
2022-08-29T05:41:07.441Z,99595.38
2022-08-29T05:42:12.201Z,99596.78
2022-08-29T05:43:14.739Z,99594.84
2022-08-29T05:44:17.047Z,99595.50
2022-08-29T05:45:19.330Z,99598.38
2022-08-29T05:46:21.711Z,99597.56
2022-08-29T05:47:24.079Z,99595.63
2022-08-29T05:48:26.382Z,99603.75
2022-08-29T05:49:28.814Z,99602.09
2022-08-29T05:50:31.384Z,99597.16
2022-08-29T05:51:38.856Z,99597.03
2022-08-29T05:52:41.797Z,99605.22
2022-08-29T05:53:44.943Z,99597.88
2022-08-29T05:54:47.631Z,99604.34
2022-08-29T05:55:49.952Z,99608.31
2022-08-29T05:56:52.730Z,99593.09
2022-08-29T05:57:55.166Z,99604.19
2022-08-29T05:58:57.490Z,99611.53
2022-08-29T06:00:00.434Z,99620.22
2022-08-29T06:01:02.723Z,99610.06
2022-08-29T06:02:07.076Z,99611.34
2022-08-29T06:03:11.253Z,99618.28
2022-08-29T06:04:13.734Z,99615.13
2022-08-29T06:05:16.099Z,99608.97
2022-08-29T06:06:21.346Z,99621.47
2022-08-29T06:07:25.511Z,99607.44
2022-08-29T06:08:27.866Z,99617.31
2022-08-29T06:09:30.095Z,99609.91
2022-08-29T06:10:32.847Z,99620.22
2022-08-29T06:11:35.196Z,99613.94
2022-08-29T06:12:37.522Z,99612.03
2022-08-29T06:13:39.746Z,99614.31
2022-08-29T06:14:42.418Z,99624.25
2022-08-29T06:15:53.072Z,99622.09
2022-08-29T06:16:55.855Z,99609.47
2022-08-29T06:17:58.089Z,99612.75
2022-08-29T06:19:00.492Z,99625.66
2022-08-29T06:20:04.189Z,99618.56
2022-08-29T06:21:06.982Z,99614.06
2022-08-29T06:22:10.290Z,99615.50
2022-08-29T06:23:12.609Z,99621.84
2022-08-29T06:24:16.303Z,99616.91
2022-08-29T06:25:40.550Z,99622.56
2022-08-29T06:26:40.993Z,99629.09
2022-08-29T06:27:43.289Z,99626.25
2022-08-29T06:28:46.313Z,99635.78
2022-08-29T06:29:48.640Z,99627.28
2022-08-29T06:30:53.599Z,99626.09
2022-08-29T06:31:56.864Z,99625.50
2022-08-29T06:33:00.045Z,99644.81
2022-08-29T06:34:04.875Z,99631.66
2022-08-29T06:35:07.343Z,99636.69
2022-08-29T06:36:11.004Z,99627.63
2022-08-29T06:37:13.308Z,99638.81
2022-08-29T06:38:15.848Z,99633.88
2022-08-29T06:39:19.861Z,99635.13
2022-08-29T06:40:22.385Z,99642.84
2022-08-29T06:41:25.475Z,99639.84
2022-08-29T06:42:27.709Z,99646.44
2022-08-29T06:43:31.145Z,99639.97
2022-08-29T06:44:33.873Z,99634.94
2022-08-29T06:45:41.089Z,99638.16
2022-08-29T06:46:47.400Z,99639.63
2022-08-29T06:47:49.745Z,99639.44
2022-08-29T06:48:53.799Z,99644.97
2022-08-29T06:50:17.357Z,99643.16
2022-08-29T06:51:20.216Z,99629.63
2022-08-29T06:52:22.457Z,99630.59
2022-08-29T06:53:32.137Z,99633.97
2022-08-29T06:54:35.293Z,99630.00
2022-08-29T06:55:38.779Z,99635.84
2022-08-29T06:56:42.448Z,99627.06
2022-08-29T06:57:45.869Z,99628.56
2022-08-29T06:58:48.206Z,99631.22
2022-08-29T06:59:50.449Z,99624.53
2022-08-29T07:00:52.695Z,99637.78
2022-08-29T07:01:55.407Z,99639.44
2022-08-29T07:02:58.117Z,99620.56
2022-08-29T07:04:01.168Z,99635.06
2022-08-29T07:05:04.216Z,99644.22
2022-08-29T07:06:07.858Z,99637.06
2022-08-29T07:07:10.147Z,99637.94
2022-08-29T07:08:12.416Z,99641.25
2022-08-29T07:09:14.749Z,99647.53
2022-08-29T07:10:22.286Z,99643.56
2022-08-29T07:11:26.826Z,99652.00
2022-08-29T07:12:29.187Z,99648.88
2022-08-29T07:13:37.202Z,99643.34
2022-08-29T07:14:39.440Z,99652.69
2022-08-29T07:15:42.210Z,99650.91
2022-08-29T07:16:44.544Z,99654.34
2022-08-29T07:17:47.405Z,99651.88
2022-08-29T07:18:49.901Z,99655.53
2022-08-29T07:19:53.494Z,99665.00
2022-08-29T07:20:55.819Z,99654.31
2022-08-29T07:21:59.140Z,99662.09
2022-08-29T07:23:01.602Z,99661.47
2022-08-29T07:24:04.288Z,99665.94
2022-08-29T07:25:07.440Z,99659.00
2022-08-29T07:26:12.135Z,99661.22
2022-08-29T07:27:14.872Z,99657.84
2022-08-29T07:28:17.334Z,99655.91
2022-08-29T07:29:22.351Z,99664.22
2022-08-29T07:30:25.244Z,99660.50
2022-08-29T07:31:31.027Z,99670.84
2022-08-29T07:32:33.821Z,99672.22
2022-08-29T07:33:36.709Z,99664.44
2022-08-29T07:34:39.146Z,99668.34
2022-08-29T07:35:41.406Z,99660.38
2022-08-29T07:36:43.714Z,99668.94
2022-08-29T07:37:50.649Z,99664.28
2022-08-29T07:38:53.122Z,99665.75
2022-08-29T07:39:55.403Z,99660.22
2022-08-29T07:41:03.293Z,99670.88
2022-08-29T07:42:05.614Z,99659.72
2022-08-29T07:43:07.901Z,99662.56
2022-08-29T07:44:11.997Z,99670.22
2022-08-29T07:45:14.873Z,99659.78
2022-08-29T07:46:20.214Z,99666.59
2022-08-29T07:47:26.478Z,99671.03
2022-08-29T07:48:28.722Z,99668.56
2022-08-29T07:49:41.032Z,99663.69
2022-08-29T07:50:44.090Z,99668.38
2022-08-29T07:51:46.450Z,99659.72
2022-08-29T07:52:48.829Z,99660.50
2022-08-29T07:53:52.371Z,99660.63
2022-08-29T07:54:56.017Z,99655.66
2022-08-29T07:55:58.244Z,99653.78
2022-08-29T07:57:00.659Z,99662.06
2022-08-29T07:58:04.738Z,99659.66
2022-08-29T07:59:07.884Z,99662.41
2022-08-29T08:00:12.056Z,99662.06
2022-08-29T08:01:20.924Z,99661.06
2022-08-29T08:02:24.062Z,99662.06
2022-08-29T08:03:27.139Z,99658.34
2022-08-29T08:04:29.928Z,99662.09
2022-08-29T08:05:32.537Z,99651.00
2022-08-29T08:06:36.710Z,99664.13
2022-08-29T08:07:40.141Z,99665.16
2022-08-29T08:08:42.878Z,99653.09
2022-08-29T08:09:45.191Z,99663.44
2022-08-29T08:10:51.886Z,99661.66
2022-08-29T08:11:54.562Z,99662.81
2022-08-29T08:12:56.836Z,99661.59
2022-08-29T08:13:59.359Z,99653.97
2022-08-29T08:15:03.068Z,99653.00
2022-08-29T08:16:07.797Z,99657.03
2022-08-29T08:17:10.145Z,99663.00
2022-08-29T08:18:12.892Z,99667.56
2022-08-29T08:19:15.982Z,99656.53
2022-08-29T08:20:20.145Z,99648.69
2022-08-29T08:21:24.100Z,99654.66
2022-08-29T08:22:26.461Z,99667.66
2022-08-29T08:23:28.889Z,99655.38
2022-08-29T08:24:31.307Z,99659.22
2022-08-29T08:25:33.614Z,99664.16
2022-08-29T08:26:36.755Z,99657.81
2022-08-29T08:27:43.306Z,99657.69
2022-08-29T08:28:47.784Z,99649.41
2022-08-29T08:29:50.287Z,99654.25
2022-08-29T08:30:53.392Z,99653.75
2022-08-29T08:31:59.735Z,99656.94
2022-08-29T08:33:02.220Z,99658.13
2022-08-29T08:34:04.810Z,99657.44
2022-08-29T08:35:07.728Z,99662.88
2022-08-29T08:36:29.681Z,99657.13
2022-08-29T08:37:32.309Z,99653.56
2022-08-29T08:38:34.768Z,99660.34
2022-08-29T08:39:38.790Z,99662.38
2022-08-29T08:40:53.738Z,99663.19
2022-08-29T08:42:04.371Z,99658.69
2022-08-29T08:43:08.504Z,99664.50
2022-08-29T08:44:26.856Z,99669.22
2022-08-29T08:45:41.952Z,99664.56
2022-08-29T08:46:47.722Z,99663.28
2022-08-29T08:47:58.333Z,99659.34
2022-08-29T08:49:03.426Z,99661.59
2022-08-29T08:50:11.165Z,99651.94
2022-08-29T08:51:25.393Z,99667.28
2022-08-29T08:52:39.001Z,99658.66
2022-08-29T08:53:44.656Z,99651.69
2022-08-29T08:54:54.665Z,99650.91
2022-08-29T08:55:59.809Z,99658.94
2022-08-29T08:57:11.178Z,99649.84
2022-08-29T08:58:27.284Z,99660.22
2022-08-29T08:59:35.435Z,99655.41
2022-08-29T09:00:56.045Z,99663.63
2022-08-29T09:02:11.940Z,99654.88
2022-08-29T09:03:40.257Z,99656.00
2022-08-29T09:05:00.913Z,99653.50
2022-08-29T09:06:27.874Z,99653.66
2022-08-29T09:07:53.016Z,99661.13
2022-08-29T09:09:14.452Z,99667.91
2022-08-29T09:10:31.734Z,99664.34
2022-08-29T09:11:36.728Z,99668.25
2022-08-29T09:12:39.093Z,99671.25
2022-08-29T09:14:03.778Z,99666.88
2022-08-29T09:15:18.980Z,99668.25
2022-08-29T09:16:29.539Z,99672.94
2022-08-29T09:17:43.679Z,99671.72
2022-08-29T09:18:52.667Z,99674.69
2022-08-29T09:19:57.352Z,99662.09
2022-08-29T09:21:06.634Z,99666.31
2022-08-29T09:22:19.093Z,99671.59
2022-08-29T09:23:39.865Z,99669.13
2022-08-29T09:24:51.154Z,99671.84
2022-08-29T09:25:53.690Z,99674.75
2022-08-29T09:26:56.393Z,99676.75
2022-08-29T09:27:59.146Z,99667.47
2022-08-29T09:29:01.479Z,99667.75
2022-08-29T09:30:20.484Z,99667.41
2022-08-29T09:31:35.359Z,99667.47
2022-08-29T09:32:52.708Z,99660.97
2022-08-29T09:33:58.132Z,99664.91
2022-08-29T09:35:09.640Z,99663.84
2022-08-29T09:36:15.475Z,99663.09
2022-08-29T09:37:29.246Z,99661.38
2022-08-29T09:38:31.561Z,99661.84
2022-08-29T09:39:34.161Z,99662.22
2022-08-29T09:40:45.352Z,99656.00
2022-08-29T09:41:57.338Z,99656.56
2022-08-29T09:43:03.014Z,99667.06
2022-08-29T09:44:06.332Z,99660.13
2022-08-29T09:45:29.418Z,99649.00
2022-08-29T09:46:31.710Z,99658.94
2022-08-29T09:47:34.519Z,99661.69
2022-08-29T09:48:40.218Z,99647.06
2022-08-29T09:50:02.550Z,99669.03
2022-08-29T09:51:37.295Z,99666.38
2022-08-29T09:52:52.975Z,99660.50
2022-08-29T09:54:32.339Z,99663.75
2022-08-29T09:55:45.325Z,99669.59
2022-08-29T09:56:52.359Z,99657.19
2022-08-29T09:58:06.707Z,99664.03
2022-08-29T09:59:25.573Z,99651.25
2022-08-29T10:00:40.899Z,99655.69
2022-08-29T10:01:43.332Z,99652.88
2022-08-29T10:02:49.155Z,99654.47
2022-08-29T10:03:56.672Z,99655.63
2022-08-29T10:05:06.695Z,99650.56
2022-08-29T10:06:20.596Z,99652.72
2022-08-29T10:07:29.788Z,99650.63
2022-08-29T10:08:35.572Z,99647.59
2022-08-29T10:09:38.032Z,99641.94
2022-08-29T10:10:52.505Z,99645.69
2022-08-29T10:12:03.460Z,99644.81
2022-08-29T10:13:19.533Z,99642.69
2022-08-29T10:14:38.441Z,99646.75
2022-08-29T10:15:51.362Z,99645.97
2022-08-29T10:17:19.673Z,99649.59
2022-08-29T10:18:43.050Z,99650.34
2022-08-29T10:19:45.748Z,99651.03
2022-08-29T10:21:13.487Z,99656.16
2022-08-29T10:22:35.722Z,99655.16
2022-08-29T10:23:51.327Z,99641.59
2022-08-29T10:25:12.476Z,99653.66
2022-08-29T10:26:54.198Z,99650.28
2022-08-29T10:28:19.361Z,99658.16
2022-08-29T10:29:21.582Z,99646.38
2022-08-29T10:30:29.336Z,99645.78
2022-08-29T10:31:45.017Z,99649.41
2022-08-29T10:32:56.127Z,99647.53
2022-08-29T10:34:08.047Z,99645.97
2022-08-29T10:35:27.564Z,99645.38
2022-08-29T10:36:36.703Z,99654.03
2022-08-29T10:37:51.930Z,99644.00
2022-08-29T10:39:02.645Z,99644.03
2022-08-29T10:40:24.642Z,99634.56
2022-08-29T10:41:32.751Z,99643.63
2022-08-29T10:42:38.521Z,99642.97
2022-08-29T10:43:44.630Z,99625.06
2022-08-29T10:45:14.440Z,99636.91
2022-08-29T10:46:39.362Z,99638.41
2022-08-29T10:48:24.874Z,99640.41
2022-08-29T10:49:59.208Z,99638.56
2022-08-29T10:51:02.188Z,99634.28
2022-08-29T10:52:28.829Z,99638.06
2022-08-29T10:53:36.628Z,99636.88
2022-08-29T10:54:59.724Z,99636.16
2022-08-29T10:56:20.050Z,99630.78
2022-08-29T10:57:37.219Z,99637.50
2022-08-29T10:58:54.855Z,99633.31
2022-08-29T11:00:07.160Z,99633.66
2022-08-29T11:01:30.828Z,99627.47
2022-08-29T11:03:05.322Z,99624.16
2022-08-29T11:04:31.381Z,99625.59
2022-08-29T11:05:40.366Z,99615.88
2022-08-29T11:06:57.982Z,99618.66
2022-08-29T11:08:16.087Z,99620.84
2022-08-29T11:09:25.320Z,99620.88
2022-08-29T11:10:39.686Z,99620.63
2022-08-29T11:11:56.226Z,99603.56
2022-08-29T11:13:06.333Z,99629.53
2022-08-29T11:14:19.840Z,99616.41
2022-08-29T11:15:28.544Z,99624.97
2022-08-29T11:16:37.778Z,99615.03
2022-08-29T11:17:44.514Z,99606.84
2022-08-29T11:19:13.091Z,99607.38
2022-08-29T11:20:21.541Z,99602.06
2022-08-29T11:21:35.199Z,99606.09
2022-08-29T11:23:08.840Z,99612.09
2022-08-29T11:24:14.477Z,99609.38
2022-08-29T11:25:20.164Z,99609.06
2022-08-29T11:26:22.363Z,99605.19
2022-08-29T11:27:36.561Z,99604.66
2022-08-29T11:29:14.392Z,99604.66
2022-08-29T11:30:26.915Z,99612.75
2022-08-29T11:31:50.637Z,99606.63
2022-08-29T11:33:25.099Z,99603.69
2022-08-29T11:34:38.902Z,99606.09
2022-08-29T11:36:04.221Z,99596.06
2022-08-29T11:37:36.366Z,99597.47
2022-08-29T11:39:18.060Z,99596.31
2022-08-29T11:43:50.413Z,99594.16
2022-08-29T11:44:55.861Z,99602.16
2022-08-29T11:46:04.584Z,99589.78
2022-08-29T11:47:44.304Z,99599.13
2022-08-29T11:48:49.156Z,99589.63
2022-08-29T11:49:52.005Z,99583.91
2022-08-29T11:52:12.926Z,99583.72
2022-08-29T11:53:21.421Z,99595.03
2022-08-29T11:54:24.876Z,99582.69
2022-08-29T11:55:34.244Z,99588.84
2022-08-29T11:56:36.508Z,99587.81
2022-08-29T11:57:46.868Z,99589.47
2022-08-29T11:58:51.859Z,99578.75
2022-08-29T12:00:01.505Z,99565.06
2022-08-29T12:01:34.022Z,99572.41
2022-08-29T12:02:36.635Z,99574.91
2022-08-29T12:03:38.924Z,99578.66
2022-08-29T12:04:58.168Z,99576.47
2022-08-29T12:06:21.801Z,99574.88
2022-08-29T12:07:38.830Z,99569.78
2022-08-29T12:08:52.018Z,99575.78
2022-08-29T12:09:57.470Z,99576.25
2022-08-29T12:11:00.645Z,99564.66
2022-08-29T12:12:03.947Z,99559.91
2022-08-29T12:13:06.803Z,99560.59
2022-08-29T12:14:09.105Z,99564.50
2022-08-29T12:15:52.703Z,99565.50
2022-08-29T12:16:55.420Z,99561.47
2022-08-29T12:18:07.647Z,99577.47
2022-08-29T12:19:09.903Z,99566.84
2022-08-29T12:20:16.917Z,99570.75
2022-08-29T12:21:31.972Z,99567.78
2022-08-29T12:22:59.834Z,99568.25
2022-08-29T12:24:24.667Z,99565.47
2022-08-29T12:25:32.104Z,99552.34
2022-08-29T12:26:44.063Z,99567.25
2022-08-29T12:28:02.753Z,99562.06
2022-08-29T12:29:10.410Z,99563.03
2022-08-29T12:30:14.349Z,99557.66
2022-08-29T12:31:56.386Z,99566.69
2022-08-29T12:33:28.606Z,99561.03
2022-08-29T12:34:49.917Z,99545.56
2022-08-29T12:36:07.447Z,99562.09
2022-08-29T12:37:28.594Z,99559.22
2022-08-29T12:38:41.986Z,99565.63
2022-08-29T12:40:14.974Z,99572.69
2022-08-29T12:41:32.299Z,99572.09
2022-08-29T12:42:45.688Z,99558.19
2022-08-29T12:43:54.309Z,99560.66
2022-08-29T12:45:12.436Z,99556.25
2022-08-29T12:46:26.120Z,99553.78
2022-08-29T12:48:09.422Z,99549.09
2022-08-29T12:49:30.083Z,99537.09
2022-08-29T12:50:36.578Z,99543.31
2022-08-29T12:51:41.774Z,99529.38
2022-08-29T12:52:57.218Z,99541.13
2022-08-29T12:53:59.580Z,99523.47
2022-08-29T12:55:41.968Z,99532.03
2022-08-29T12:56:49.825Z,99531.03
2022-08-29T12:57:52.676Z,99537.66
2022-08-29T12:58:58.900Z,99536.63
2022-08-29T13:00:05.450Z,99523.28
2022-08-29T13:01:30.700Z,99531.34
2022-08-29T13:02:36.078Z,99526.53
2022-08-29T13:03:38.412Z,99526.63
2022-08-29T13:04:43.797Z,99527.16
2022-08-29T13:05:47.308Z,99528.16
2022-08-29T13:07:16.586Z,99521.63
2022-08-29T13:08:32.100Z,99523.81
2022-08-29T13:09:38.423Z,99520.06
2022-08-29T13:10:54.084Z,99523.25
2022-08-29T13:12:16.981Z,99522.91
2022-08-29T13:13:21.238Z,99516.63
2022-08-29T13:14:23.714Z,99516.00
2022-08-29T13:15:32.092Z,99515.34